createdAt,value
2023-02-27T04:58:50.297Z,7.13
2023-02-27T05:01:26.686Z,7.45
2023-02-27T05:03:54.583Z,6.32
2023-02-27T05:06:25.794Z,7.53
2023-02-27T05:09:18.875Z,7.28
2023-02-27T05:11:53.565Z,6.72
2023-02-27T05:14:36.376Z,5.40
2023-02-27T05:17:33.097Z,6.95
2023-02-27T05:20:00.175Z,8.27
2023-02-27T05:22:41.606Z,5.88
2023-02-27T05:25:12.880Z,5.03
2023-02-27T05:27:47.146Z,5.53
2023-02-27T05:30:43.676Z,6.57
2023-02-27T05:33:17.786Z,5.30
2023-02-27T05:35:52.384Z,7.53
2023-02-27T05:38:38.526Z,9.32
2023-02-27T05:41:35.867Z,9.48
2023-02-27T05:44:11.906Z,4.50
2023-02-27T05:46:42.657Z,7.77
2023-02-27T05:49:17.529Z,6.78
2023-02-27T05:51:46.973Z,7.60
2023-02-27T05:54:24.792Z,7.43
2023-02-27T05:56:56.047Z,5.65
2023-02-27T05:59:30.721Z,5.80
2023-02-27T06:02:00.167Z,5.60
2023-02-27T06:04:26.768Z,9.02
2023-02-27T06:06:53.960Z,7.05
2023-02-27T06:09:22.574Z,5.22
2023-02-27T06:11:51.328Z,6.10
2023-02-27T06:14:20.172Z,6.05
2023-02-27T06:16:46.763Z,7.38
2023-02-27T06:19:13.417Z,6.63
2023-02-27T06:21:39.931Z,7.00
2023-02-27T06:24:06.722Z,5.40
2023-02-27T06:26:33.329Z,10.80
2023-02-27T06:29:00.010Z,6.47
2023-02-27T06:31:28.877Z,6.05
2023-02-27T06:33:55.825Z,7.90
2023-02-27T06:36:23.115Z,4.83
2023-02-27T06:38:49.711Z,5.47
2023-02-27T06:41:16.268Z,5.47
2023-02-27T06:43:45.091Z,5.80
2023-02-27T06:46:11.746Z,7.65
2023-02-27T06:48:40.858Z,6.60
2023-02-27T06:51:09.763Z,7.13
2023-02-27T06:53:36.340Z,5.53
2023-02-27T06:56:05.336Z,6.18
2023-02-27T06:58:31.986Z,7.78
2023-02-27T07:01:00.614Z,6.03
2023-02-27T07:03:27.298Z,4.75
2023-02-27T07:05:53.851Z,4.93
2023-02-27T07:08:22.505Z,8.23
2023-02-27T07:10:49.265Z,6.15
2023-02-27T07:13:21.355Z,8.03
2023-02-27T07:15:47.961Z,5.45
2023-02-27T07:18:17.049Z,7.35
2023-02-27T07:20:43.656Z,7.18
2023-02-27T07:23:10.841Z,5.97
2023-02-27T07:25:37.395Z,5.07
2023-02-27T07:28:05.266Z,5.53
2023-02-27T07:30:31.903Z,6.45
2023-02-27T07:32:58.696Z,6.45
2023-02-27T07:35:25.283Z,7.78
2023-02-27T07:37:54.837Z,7.73
2023-02-27T07:40:21.496Z,5.53
2023-02-27T07:42:49.722Z,5.32
2023-02-27T07:45:20.682Z,5.55
2023-02-27T07:51:28.285Z,7.20
2023-02-27T07:53:59.727Z,4.57
2023-02-27T07:56:29.125Z,4.72
2023-02-27T07:58:58.315Z,9.82
2023-02-27T08:01:27.376Z,5.32
2023-02-27T08:03:53.945Z,5.97
2023-02-27T08:06:20.574Z,4.97
2023-02-27T08:08:50.003Z,7.47
2023-02-27T08:11:16.582Z,7.47
2023-02-27T08:13:59.967Z,7.50
2023-02-27T08:16:27.801Z,5.03
2023-02-27T08:18:54.855Z,5.40
2023-02-27T08:21:21.473Z,7.65
2023-02-27T08:23:48.159Z,8.43
2023-02-27T08:26:15.731Z,10.05
2023-02-27T08:28:42.368Z,7.00
2023-02-27T08:31:09.029Z,6.60
2023-02-27T08:33:36.278Z,6.13
2023-02-27T08:36:05.328Z,5.05
2023-02-27T08:38:31.914Z,8.18
2023-02-27T08:41:00.695Z,7.10
2023-02-27T08:43:27.250Z,5.25
2023-02-27T08:45:58.340Z,7.70
2023-02-27T08:48:25.007Z,7.95
2023-02-27T08:50:52.241Z,8.57
2023-02-27T08:53:21.222Z,9.43
2023-02-27T08:55:53.525Z,7.45
2023-02-27T08:58:20.175Z,8.68
2023-02-27T09:00:46.947Z,6.78
2023-02-27T09:03:13.727Z,6.78
2023-02-27T09:05:42.853Z,19.20
2023-02-27T09:08:09.514Z,9.07
2023-02-27T09:10:36.111Z,6.80
2023-02-27T09:13:02.692Z,7.70
2023-02-27T09:15:30.208Z,7.05
2023-02-27T09:18:02.439Z,9.00
2023-02-27T09:20:31.787Z,6.97
2023-02-27T09:22:59.487Z,7.93
2023-02-27T09:25:29.404Z,7.25
2023-02-27T09:27:58.468Z,5.50
2023-02-27T09:30:25.484Z,6.93
2023-02-27T09:32:53.200Z,7.47
2023-02-27T09:35:22.402Z,9.40
2023-02-27T09:37:52.299Z,7.82
2023-02-27T09:40:25.853Z,8.07
2023-02-27T09:42:57.060Z,7.27
2023-02-27T09:45:30.160Z,7.28
2023-02-27T09:48:01.196Z,7.38
2023-02-27T09:50:38.541Z,7.85
2023-02-27T09:53:06.847Z,8.27
2023-02-27T09:55:36.015Z,6.47
2023-02-27T09:58:07.797Z,10.00
2023-02-27T10:00:51.546Z,6.40
2023-02-27T10:03:43.429Z,5.70
2023-02-27T10:06:50.343Z,7.53
2023-02-27T10:09:22.886Z,6.53
2023-02-27T10:11:49.449Z,6.90
2023-02-27T10:14:50.903Z,7.93
2023-02-27T10:17:23.416Z,8.50
2023-02-27T10:19:51.804Z,7.90
2023-02-27T10:22:50.026Z,6.40
2023-02-27T10:25:30.704Z,6.57
2023-02-27T10:28:09.081Z,7.50
2023-02-27T10:30:36.216Z,8.05
2023-02-27T10:33:03.023Z,7.40
2023-02-27T10:35:35.057Z,9.90
2023-02-27T10:38:11.577Z,9.07
2023-02-27T10:40:39.660Z,7.63
2023-02-27T10:43:09.081Z,7.68
2023-02-27T10:45:37.446Z,8.70
2023-02-27T10:48:08.615Z,9.37
2023-02-27T10:50:37.973Z,7.57
2023-02-27T10:53:10.418Z,9.07
2023-02-27T10:55:40.596Z,7.35
2023-02-27T10:58:07.552Z,5.93
2023-02-27T11:00:43.006Z,8.83
2023-02-27T11:03:21.537Z,10.25
2023-02-27T11:05:57.176Z,10.32
2023-02-27T11:08:31.248Z,8.25
2023-02-27T11:11:03.263Z,8.60
2023-02-27T11:13:36.922Z,8.13
2023-02-27T11:16:15.420Z,7.82
2023-02-27T11:18:48.971Z,8.77
2023-02-27T11:23:25.265Z,8.30
2023-02-27T11:26:09.996Z,9.13
2023-02-27T11:28:38.778Z,9.07
2023-02-27T11:31:22.443Z,9.20
2023-02-27T11:34:00.917Z,8.68
2023-02-27T11:36:48.607Z,7.45
2023-02-27T11:39:25.006Z,7.77
2023-02-27T11:41:51.853Z,10.02
2023-02-27T11:44:24.006Z,7.65
2023-02-27T11:47:13.847Z,13.02
2023-02-27T11:50:00.856Z,9.98
2023-02-27T11:52:59.054Z,10.10
2023-02-27T11:55:29.231Z,7.68
2023-02-27T11:58:05.252Z,6.97
2023-02-27T12:00:40.166Z,9.30
2023-02-27T12:03:42.223Z,9.88
2023-02-27T12:06:18.082Z,12.00
2023-02-27T12:08:53.953Z,10.13
2023-02-27T12:11:32.170Z,8.43
2023-02-27T12:14:04.305Z,7.03
2023-02-27T12:16:42.343Z,9.35
2023-02-27T12:19:31.589Z,8.67
2023-02-27T12:22:35.533Z,7.55
2023-02-27T12:25:35.655Z,7.63
2023-02-27T12:28:24.367Z,8.88
2023-02-27T12:31:01.643Z,8.30
2023-02-27T12:34:18.725Z,9.30
2023-02-27T12:36:48.052Z,8.07
2023-02-27T12:39:33.552Z,9.90
2023-02-27T12:42:05.762Z,9.18
2023-02-27T12:45:02.592Z,7.35
2023-02-27T12:47:37.560Z,9.20
2023-02-27T12:50:12.650Z,7.75
2023-02-27T12:53:04.076Z,9.52
2023-02-27T12:55:38.232Z,8.10
2023-02-27T12:58:42.456Z,9.93
2023-02-27T13:01:46.680Z,8.73
2023-02-27T13:04:13.219Z,8.75
2023-02-27T13:06:51.387Z,10.57
2023-02-27T13:09:36.853Z,7.95
2023-02-27T13:12:23.553Z,7.05
2023-02-27T13:15:32.041Z,11.17
2023-02-27T13:18:16.406Z,10.40
2023-02-27T13:21:09.996Z,10.55
2023-02-27T13:24:03.286Z,9.27
2023-02-27T13:26:34.617Z,8.63
2023-02-27T13:29:03.824Z,11.53
2023-02-27T13:31:42.570Z,8.82
2023-02-27T13:34:18.159Z,9.05
2023-02-27T13:36:52.423Z,7.45
2023-02-27T13:39:52.592Z,9.70
2023-02-27T13:42:28.964Z,6.97
2023-02-27T13:45:06.421Z,9.13
2023-02-27T13:47:45.869Z,11.27
2023-02-27T13:50:35.706Z,11.15
2023-02-27T13:53:10.028Z,11.30
2023-02-27T13:55:36.995Z,8.00
2023-02-27T13:58:04.618Z,6.70
2023-02-27T14:00:37.378Z,9.02
2023-02-27T14:03:19.625Z,11.95
2023-02-27T14:05:47.894Z,8.27
2023-02-27T14:08:19.862Z,8.50
2023-02-27T14:11:33.138Z,10.32
2023-02-27T14:14:02.128Z,9.40
2023-02-27T14:16:37.560Z,10.93
2023-02-27T14:19:16.423Z,9.98
2023-02-27T14:22:11.230Z,9.07
2023-02-27T14:25:00.014Z,11.15
2023-02-27T14:27:39.022Z,8.55
2023-02-27T14:30:09.256Z,10.02
2023-02-27T14:32:37.117Z,9.75
2023-02-27T14:35:06.536Z,9.80
2023-02-27T14:37:33.862Z,10.75
2023-02-27T14:40:03.252Z,9.13
2023-02-27T14:42:54.326Z,10.52
2023-02-27T14:45:24.540Z,9.07
2023-02-27T14:47:52.306Z,11.10
2023-02-27T14:50:24.937Z,10.20
2023-02-27T14:52:51.521Z,8.50
2023-02-27T14:55:28.033Z,8.73
2023-02-27T14:58:00.600Z,8.80
2023-02-27T15:00:40.987Z,10.07
2023-02-27T15:03:20.044Z,7.35
2023-02-27T15:05:48.315Z,10.43
2023-02-27T15:08:21.172Z,8.65
2023-02-27T15:10:51.384Z,8.95
2023-02-27T15:13:23.138Z,9.83
2023-02-27T15:15:52.324Z,10.20
2023-02-27T15:18:22.855Z,9.60
2023-02-27T15:20:58.636Z,9.73
2023-02-27T15:23:27.822Z,10.18
2023-02-27T15:25:58.722Z,9.43
2023-02-27T15:28:27.942Z,8.52
2023-02-27T15:30:55.829Z,9.77
2023-02-27T15:33:29.923Z,8.38
2023-02-27T15:35:56.796Z,11.07
2023-02-27T15:38:39.031Z,9.70
2023-02-27T15:41:06.039Z,11.40
2023-02-27T15:43:32.997Z,9.18
2023-02-27T15:45:59.653Z,10.25
2023-02-27T15:48:26.363Z,9.95
2023-02-27T15:50:55.312Z,8.90
2023-02-27T15:53:24.107Z,11.07
2023-02-27T15:55:58.503Z,10.13
2023-02-27T15:58:26.031Z,10.90
2023-02-27T16:01:00.526Z,9.02
2023-02-27T16:03:33.048Z,9.97
2023-02-27T16:06:02.542Z,10.10
2023-02-27T16:08:30.909Z,12.82
2023-02-27T16:10:58.126Z,10.85
2023-02-27T16:13:27.661Z,8.10
2023-02-27T16:16:04.823Z,9.83
2023-02-27T16:18:32.593Z,10.95
2023-02-27T16:21:13.606Z,10.75
2023-02-27T16:23:40.423Z,9.52
2023-02-27T16:26:32.786Z,10.38
2023-02-27T16:29:05.409Z,12.27
2023-02-27T16:31:37.337Z,11.43
2023-02-27T16:34:13.034Z,12.02
2023-02-27T16:36:41.321Z,10.60
2023-02-27T16:39:13.785Z,11.27
2023-02-27T16:41:43.322Z,9.97
2023-02-27T16:44:09.935Z,11.60
2023-02-27T16:46:36.464Z,9.68
2023-02-27T16:49:17.980Z,7.85
2023-02-27T16:51:46.215Z,8.60
2023-02-27T16:54:13.814Z,12.13
2023-02-27T16:56:40.996Z,13.68
2023-02-27T16:59:07.833Z,10.13
2023-02-27T17:01:34.816Z,11.77
2023-02-27T17:04:01.997Z,12.35
2023-02-27T17:06:28.837Z,13.17
2023-02-27T17:08:57.882Z,16.55
2023-02-27T17:11:24.493Z,10.57
2023-02-27T17:13:51.806Z,12.38
2023-02-27T17:16:18.323Z,11.20
2023-02-27T17:18:44.818Z,9.17
2023-02-27T17:21:11.395Z,13.52
2023-02-27T17:23:38.718Z,11.23
2023-02-27T17:26:05.651Z,12.70
2023-02-27T17:28:32.866Z,11.70
2023-02-27T17:30:59.400Z,11.90
2023-02-27T17:33:26.396Z,13.63
2023-02-27T17:36:04.747Z,12.07
2023-02-27T17:38:31.546Z,9.70
2023-02-27T17:40:58.219Z,12.77
2023-02-27T17:43:24.828Z,11.97
2023-02-27T17:45:51.377Z,12.00
2023-02-27T17:48:17.977Z,13.73
2023-02-27T17:50:45.035Z,16.73
2023-02-27T17:53:15.616Z,13.20
2023-02-27T17:55:42.176Z,11.80
2023-02-27T17:58:09.410Z,13.38
2023-02-27T18:00:36.076Z,12.43
2023-02-27T18:03:02.538Z,16.63
2023-02-27T18:05:29.031Z,13.60
2023-02-27T18:07:57.806Z,10.93
2023-02-27T18:10:24.313Z,12.15
2023-02-27T18:12:50.810Z,13.70
2023-02-27T18:15:18.212Z,12.98
2023-02-27T18:17:44.817Z,11.30
2023-02-27T18:20:12.168Z,15.73
2023-02-27T18:22:38.658Z,13.90
2023-02-27T18:25:05.657Z,12.27
2023-02-27T18:27:32.184Z,17.08
2023-02-27T18:29:59.212Z,13.90
2023-02-27T18:32:25.737Z,12.13
2023-02-27T18:34:53.537Z,17.13
2023-02-27T18:37:20.265Z,12.77
2023-02-27T18:39:46.884Z,12.82
2023-02-27T18:42:13.460Z,15.07
2023-02-27T18:44:41.412Z,14.63
2023-02-27T18:47:08.031Z,11.65
2023-02-27T18:49:34.519Z,12.95
2023-02-27T18:52:01.050Z,9.75
2023-02-27T18:54:27.582Z,10.27
2023-02-27T18:56:54.172Z,11.43
2023-02-27T18:59:20.662Z,10.73
2023-02-27T19:01:47.187Z,12.25
2023-02-27T19:04:13.721Z,10.43
2023-02-27T19:06:42.247Z,12.00
2023-02-27T19:09:11.204Z,13.20
2023-02-27T19:11:37.785Z,10.05
2023-02-27T19:14:09.059Z,10.25
2023-02-27T19:16:35.906Z,11.93
2023-02-27T19:19:03.647Z,10.07
2023-02-27T19:21:30.618Z,9.63
2023-02-27T19:23:57.631Z,10.02
2023-02-27T19:26:24.755Z,11.13
2023-02-27T19:28:53.734Z,11.32
2023-02-27T19:31:21.747Z,11.43
2023-02-27T19:33:48.426Z,13.57
2023-02-27T19:36:17.705Z,11.90
2023-02-27T19:38:44.425Z,11.32
2023-02-27T19:41:12.557Z,10.48
2023-02-27T19:43:40.377Z,14.55
2023-02-27T19:46:09.012Z,9.77
2023-02-27T19:48:35.595Z,11.55
2023-02-27T19:51:06.460Z,11.75
2023-02-27T19:53:35.680Z,11.57
2023-02-27T19:56:13.783Z,10.95
2023-02-27T19:58:40.407Z,9.70
2023-02-27T20:01:07.283Z,9.55
2023-02-27T20:03:35.192Z,10.27
2023-02-27T20:06:06.277Z,7.95
2023-02-27T20:08:33.862Z,10.80
2023-02-27T20:11:04.728Z,8.60
2023-02-27T20:13:31.417Z,10.48
2023-02-27T20:16:03.403Z,9.70
2023-02-27T20:18:30.949Z,11.88
2023-02-27T20:21:06.731Z,13.90
2023-02-27T20:23:35.213Z,13.77
2023-02-27T20:26:02.041Z,9.57
2023-02-27T20:28:31.894Z,9.57
2023-02-27T20:30:58.395Z,9.73
2023-02-27T20:33:24.944Z,12.52
2023-02-27T20:35:51.511Z,10.33
2023-02-27T20:38:19.935Z,13.00
2023-02-27T20:40:46.444Z,9.13
2023-02-27T20:43:15.472Z,12.02
2023-02-27T20:45:44.346Z,13.02
2023-02-27T20:48:11.125Z,8.87
2023-02-27T20:50:37.667Z,10.20
2023-02-27T20:53:04.226Z,12.02
2023-02-27T20:55:30.780Z,11.32
2023-02-27T20:57:57.297Z,14.55
